Time;durP1;ratioP1;P1;durP2;ratioP2;P2;SDS_P1;SDS_P2;PMS_P1;PMS_P2;Temp;Humidity;BMP_temperature;BMP_pressure;BME280_temperature;BME280_humidity;BME280_pressure;Samples;Min_cycle;Max_cycle;Signal;HPM_P1;HPM_P2
2023/09/30 00:01:34;;;;;;;6.07;3.45;;;;;;;19.42;49.18;100062.75;4487092;31;32562;-81
2023/09/30 00:04:05;;;;;;;4.80;3.20;;;;;;;19.32;49.06;100065.59;4479319;31;33663;-82
2023/09/30 00:06:33;;;;;;;8.68;4.10;;;;;;;19.34;48.80;100066.31;4476570;32;33045;-81
2023/09/30 00:09:00;;;;;;;8.63;3.53;;;;;;;19.27;49.08;100065.25;4482838;32;33884;-81
2023/09/30 00:11:28;;;;;;;5.03;3.17;;;;;;;19.21;49.44;100057.78;4482346;32;33231;-77
2023/09/30 00:13:56;;;;;;;4.05;2.85;;;;;;;19.22;49.57;100071.16;4482193;32;35333;-77
2023/09/30 00:16:24;;;;;;;11.65;5.60;;;;;;;19.14;49.94;100060.28;4484920;31;33880;-77
2023/09/30 00:18:54;;;;;;;5.85;3.92;;;;;;;19.05;50.42;100062.09;4489641;31;33532;-78
2023/09/30 00:21:22;;;;;;;6.05;2.87;;;;;;;18.93;50.75;100057.13;4476947;32;32943;-79
2023/09/30 00:23:49;;;;;;;7.97;3.80;;;;;;;19.03;50.48;100052.41;4481424;32;34483;-78
2023/09/30 00:26:17;;;;;;;9.43;3.90;;;;;;;18.76;51.06;100059.72;4485461;32;33014;-79
2023/09/30 00:28:46;;;;;;;6.82;3.87;;;;;;;18.89;50.68;100056.59;4478648;32;33993;-78
2023/09/30 00:31:14;;;;;;;7.85;3.83;;;;;;;18.86;50.72;100059.62;4491443;32;32989;-78
2023/09/30 00:33:42;;;;;;;7.68;4.60;;;;;;;18.84;50.81;100058.91;4481701;31;33057;-78
2023/09/30 00:36:11;;;;;;;4.20;2.22;;;;;;;18.94;50.57;100053.38;4488631;32;33967;-77
2023/09/30 00:38:39;;;;;;;7.93;3.67;;;;;;;18.96;50.40;100045.94;4484089;31;34876;-78
2023/09/30 00:41:07;;;;;;;4.43;2.72;;;;;;;18.94;50.37;100046.12;4490616;31;33279;-81
2023/09/30 00:43:35;;;;;;;3.47;2.12;;;;;;;18.84;50.66;100051.66;4481119;32;33601;-78
2023/09/30 00:46:21;;;;;;;4.07;2.45;;;;;;;18.89;50.46;100047.59;4485682;32;34641;-77
2023/09/30 00:48:49;;;;;;;12.30;7.65;;;;;;;18.66;51.16;100037.28;4488983;31;33647;-77
2023/09/30 00:51:17;;;;;;;7.07;4.07;;;;;;;18.50;51.52;100034.47;4484759;31;34152;-80
2023/09/30 00:53:45;;;;;;;5.70;3.50;;;;;;;18.59;51.40;100041.63;4458990;32;33601;-78
2023/09/30 00:56:13;;;;;;;6.28;3.15;;;;;;;18.67;51.21;100041.69;4467569;32;33963;-77
2023/09/30 00:58:41;;;;;;;11.80;7.78;;;;;;;18.71;51.00;100045.75;4458431;32;32866;-78
2023/09/30 01:01:09;;;;;;;6.93;4.07;;;;;;;18.69;51.06;100041.53;4461422;32;33019;-78
2023/09/30 01:03:37;;;;;;;9.07;6.50;;;;;;;18.77;50.73;100038.88;4450311;32;32983;-79
2023/09/30 01:06:05;;;;;;;10.05;6.40;;;;;;;18.60;51.19;100035.19;4453501;32;34687;-79
2023/09/30 01:08:34;;;;;;;10.73;6.95;;;;;;;18.62;51.09;100034.03;4449102;32;33701;-78
2023/09/30 01:11:02;;;;;;;3.35;2.05;;;;;;;18.58;51.19;100031.78;4453833;32;34145;-79
2023/09/30 01:13:36;;;;;;;7.10;5.25;;;;;;;18.58;51.14;100031.78;4449173;32;33732;-78
2023/09/30 01:16:05;;;;;;;4.95;3.05;;;;;;;18.59;51.16;100033.50;4451786;32;33401;-83
2023/09/30 01:18:33;;;;;;;2.78;1.90;;;;;;;18.54;51.27;100035.84;4435844;32;33352;-77
2023/09/30 01:21:03;;;;;;;5.75;3.55;;;;;;;18.54;51.17;100030.41;4457816;32;33629;-79
2023/09/30 01:23:32;;;;;;;6.07;4.12;;;;;;;18.45;51.37;100034.91;4452894;32;35164;-79
2023/09/30 01:26:03;;;;;;;6.25;2.42;;;;;;;18.26;52.15;100030.53;4428196;32;33769;-79
2023/09/30 01:28:31;;;;;;;7.85;3.30;;;;;;;18.22;52.22;100037.28;4431839;32;33603;-78
2023/09/30 01:30:59;;;;;;;6.40;3.92;;;;;;;18.34;51.80;100030.59;4438997;32;33249;-78
2023/09/30 01:33:28;;;;;;;4.32;2.65;;;;;;;18.47;51.53;100030.19;4449112;32;33475;-77
2023/09/30 01:35:56;;;;;;;7.68;3.97;;;;;;;18.48;51.48;100033.75;4456481;32;34132;-79
2023/09/30 01:38:23;;;;;;;4.53;3.03;;;;;;;18.53;51.37;100034.97;4454887;32;34704;-77
2023/09/30 01:40:51;;;;;;;5.75;3.35;;;;;;;18.50;51.53;100034.47;4453068;32;33467;-85
2023/09/30 01:43:19;;;;;;;7.00;3.65;;;;;;;18.42;51.85;100029.81;4456486;32;34738;-77
2023/09/30 01:45:47;;;;;;;7.45;3.65;;;;;;;18.41;51.95;100029.97;4453791;32;33787;-78
2023/09/30 01:48:15;;;;;;;4.50;2.37;;;;;;;18.47;52.05;100029.34;4443832;32;33794;-79
2023/09/30 01:50:43;;;;;;;5.37;2.92;;;;;;;18.57;51.75;100030.09;4457602;32;32917;-78
2023/09/30 01:53:10;;;;;;;7.20;2.72;;;;;;;18.56;51.58;100023.81;4453582;32;34561;-78
2023/09/30 01:55:38;;;;;;;6.53;3.10;;;;;;;18.64;51.12;100031.16;4455914;32;34548;-79
2023/09/30 01:58:07;;;;;;;5.72;3.33;;;;;;;18.63;51.05;100029.47;4473114;32;33640;-78
2023/09/30 02:00:35;;;;;;;5.97;3.17;;;;;;;18.53;51.31;100024.16;4476335;31;33330;-78
2023/09/30 02:03:03;;;;;;;7.18;3.67;;;;;;;18.30;52.03;100026.53;4479565;32;34324;-78
2023/09/30 02:05:31;;;;;;;5.75;3.58;;;;;;;18.21;52.59;100022.03;4468554;32;35150;-81
2023/09/30 02:07:58;;;;;;;7.03;4.30;;;;;;;18.06;52.84;100023.59;4475784;31;33546;-81
2023/09/30 02:10:27;;;;;;;4.97;2.90;;;;;;;18.00;53.21;100024.22;4466881;32;33294;-82
2023/09/30 02:12:55;;;;;;;8.18;3.97;;;;;;;17.86;53.62;100026.47;4468832;32;33895;-81
2023/09/30 02:15:23;;;;;;;6.53;3.80;;;;;;;18.04;53.17;100025.59;4466301;32;34950;-81
2023/09/30 02:17:51;;;;;;;5.57;3.83;;;;;;;18.05;53.36;100016.50;4464999;32;34506;-81
2023/09/30 02:20:25;;;;;;;5.43;3.17;;;;;;;18.07;53.52;100019.87;4475144;32;34053;-80
2023/09/30 02:22:54;;;;;;;6.03;2.78;;;;;;;18.14;53.18;100026.41;4476493;31;34621;-81
2023/09/30 02:25:22;;;;;;;4.85;2.85;;;;;;;18.10;53.24;100030.41;4479276;32;33864;-80
2023/09/30 02:27:51;;;;;;;2.87;1.90;;;;;;;18.09;53.15;100017.88;4472239;32;34316;-80
2023/09/30 02:30:18;;;;;;;2.40;1.42;;;;;;;17.96;53.23;100017.44;4466102;32;32969;-79
2023/09/30 02:32:46;;;;;;;5.37;3.45;;;;;;;18.09;52.71;100015.16;4476229;32;34064;-82
2023/09/30 02:35:15;;;;;;;4.68;2.50;;;;;;;18.09;52.42;100013.31;4469966;31;34064;-82
2023/09/30 02:37:43;;;;;;;6.90;3.50;;;;;;;17.96;52.77;100014.72;4466551;32;33362;-82
2023/09/30 02:40:11;;;;;;;3.33;2.55;;;;;;;17.99;52.79;100017.13;4475918;31;33024;-82
2023/09/30 02:42:39;;;;;;;4.97;3.03;;;;;;;18.11;52.45;100014.00;4473942;32;33535;-81
2023/09/30 02:45:09;;;;;;;15.18;4.00;;;;;;;18.09;52.65;100015.16;4479748;32;33839;-77
2023/09/30 02:47:38;;;;;;;5.50;3.70;;;;;;;17.92;53.38;100008.78;4477713;32;34103;-79
2023/09/30 02:50:13;;;;;;;3.95;3.17;;;;;;;18.09;53.00;100009.75;4475473;32;33900;-80
2023/09/30 02:52:41;;;;;;;6.57;3.62;;;;;;;18.21;52.67;100018.50;4481380;31;33904;-79
2023/09/30 02:55:10;;;;;;;10.55;4.12;;;;;;;18.25;52.67;100012.59;4471670;31;33734;-82
2023/09/30 02:57:38;;;;;;;7.32;3.30;;;;;;;18.13;53.16;100016.53;4467548;31;34392;-83
2023/09/30 03:00:23;;;;;;;4.00;2.28;;;;;;;18.29;52.56;100021.25;4471236;32;32954;-82
2023/09/30 03:02:53;;;;;;;7.62;3.42;;;;;;;18.24;52.51;100019.03;4475316;32;33544;-82
2023/09/30 03:05:22;;;;;;;4.05;2.87;;;;;;;18.06;52.78;100021.75;4468779;32;34230;-82
2023/09/30 03:07:50;;;;;;;4.55;2.58;;;;;;;18.14;52.28;100018.28;4469930;32;33703;-82
2023/09/30 03:10:20;;;;;;;5.30;3.33;;;;;;;18.08;52.35;100018.91;4469399;32;34168;-81
2023/09/30 03:12:48;;;;;;;4.72;3.10;;;;;;;18.11;52.17;100018.59;4475658;31;33781;-78
2023/09/30 03:15:16;;;;;;;3.85;2.05;;;;;;;18.14;52.09;100015.56;4480708;32;34600;-79
2023/09/30 03:17:44;;;;;;;4.68;3.10;;;;;;;18.15;51.93;100022.66;4467351;31;34640;-81
2023/09/30 03:20:14;;;;;;;5.87;3.87;;;;;;;18.13;52.03;100027.37;4477743;32;34930;-81
2023/09/30 03:22:42;;;;;;;7.53;3.08;;;;;;;18.02;52.39;100024.94;4475443;32;34623;-81
2023/09/30 03:25:11;;;;;;;3.72;2.55;;;;;;;18.04;52.33;100026.47;4478945;31;33983;-81
2023/09/30 03:27:39;;;;;;;6.22;3.33;;;;;;;17.99;52.53;100027.94;4472817;32;32397;-81
2023/09/30 03:30:08;;;;;;;4.00;2.83;;;;;;;18.03;52.34;100029.34;4465708;32;33171;-81
2023/09/30 03:32:38;;;;;;;7.60;4.47;;;;;;;18.03;52.48;100022.06;4477781;32;33680;-81
2023/09/30 03:35:21;;;;;;;11.25;7.15;;;;;;;18.04;52.43;100021.06;4477734;32;34576;-80
2023/09/30 03:37:49;;;;;;;4.22;3.08;;;;;;;18.00;52.56;100021.50;4473590;32;33599;-82
2023/09/30 03:40:19;;;;;;;3.65;2.60;;;;;;;17.71;53.36;100022.56;4473714;32;33916;-83
2023/09/30 03:42:49;;;;;;;3.47;2.17;;;;;;;17.87;53.30;100027.31;4473765;31;33581;-86
2023/09/30 03:45:18;;;;;;;11.20;6.93;;;;;;;17.96;52.97;100020.97;4468513;32;34738;-86
2023/09/30 03:47:47;;;;;;;6.70;5.22;;;;;;;17.96;53.21;100029.09;4476225;32;34462;-87
2023/09/30 03:50:16;;;;;;;7.70;3.87;;;;;;;17.96;53.22;100026.41;4466154;32;34277;-86
2023/09/30 03:52:44;;;;;;;10.13;7.50;;;;;;;18.04;53.02;100022.91;4466782;32;33665;-82
2023/09/30 03:55:17;;;;;;;4.40;2.25;;;;;;;17.91;53.05;100029.59;4476115;32;35846;-76
2023/09/30 03:57:48;;;;;;;4.40;2.67;;;;;;;18.14;52.43;100029.09;4468260;31;33398;-78
2023/09/30 04:00:18;;;;;;;6.68;4.18;;;;;;;18.11;52.50;100029.41;4474095;32;33193;-88
2023/09/30 04:02:49;;;;;;;7.43;3.03;;;;;;;17.83;53.05;100024.06;4477611;32;34823;-88
2023/09/30 04:05:19;;;;;;;6.32;4.32;;;;;;;17.95;52.75;100029.28;4450444;32;33596;-80
2023/09/30 04:07:47;;;;;;;4.95;2.83;;;;;;;17.75;53.31;100026.66;4448327;32;35397;-79
2023/09/30 04:10:15;;;;;;;11.50;6.80;;;;;;;17.80;53.22;100026.25;4448828;32;34346;-80
2023/09/30 04:12:45;;;;;;;8.93;6.05;;;;;;;17.91;52.72;100018.75;4460162;32;34574;-82
2023/09/30 04:15:13;;;;;;;7.43;4.40;;;;;;;17.99;52.40;100026.09;4464236;32;35031;-80
2023/09/30 04:17:41;;;;;;;5.50;3.10;;;;;;;18.00;52.17;100029.63;4461092;32;34720;-76
2023/09/30 04:20:10;;;;;;;4.75;2.97;;;;;;;17.98;52.05;100024.41;4452543;32;32195;-75
2023/09/30 04:22:38;;;;;;;5.70;2.72;;;;;;;17.97;52.14;100025.38;4460322;32;33929;-78
2023/09/30 04:25:09;;;;;;;9.80;3.30;;;;;;;17.91;52.12;100023.28;4451232;32;33855;-79
2023/09/30 04:27:37;;;;;;;8.50;4.50;;;;;;;17.96;52.08;100017.44;4451640;32;33425;-79
2023/09/30 04:30:08;;;;;;;7.95;3.62;;;;;;;17.87;52.78;100025.47;4454146;32;33281;-77
2023/09/30 04:32:38;;;;;;;10.15;3.45;;;;;;;17.84;53.10;100030.34;4456301;32;33387;-76
2023/09/30 04:35:10;;;;;;;5.50;3.10;;;;;;;17.55;53.52;100031.38;4452494;32;32766;-78
2023/09/30 04:37:37;;;;;;;9.68;4.18;;;;;;;17.65;53.39;100039.41;4476047;32;34286;-77
2023/09/30 04:40:07;;;;;;;5.37;3.55;;;;;;;17.65;53.55;100029.44;4478793;32;34294;-80
2023/09/30 04:42:36;;;;;;;6.22;3.22;;;;;;;17.48;54.29;100032.97;4480918;32;33826;-76
2023/09/30 04:45:07;;;;;;;5.68;3.37;;;;;;;17.44;54.39;100037.84;4482347;32;35175;-75
2023/09/30 04:47:35;;;;;;;8.57;2.25;;;;;;;17.41;54.42;100029.19;4474459;32;34724;-74
2023/09/30 04:50:07;;;;;;;2.60;1.77;;;;;;;17.32;54.53;100036.34;4482985;32;32929;-75
2023/09/30 04:52:35;;;;;;;11.60;4.03;;;;;;;17.46;54.04;100029.56;4474863;32;32958;-78
2023/09/30 04:55:05;;;;;;;5.43;2.83;;;;;;;17.45;54.04;100036.00;4482202;32;34824;-77
2023/09/30 04:57:33;;;;;;;8.43;3.50;;;;;;;17.40;54.14;100044.56;4467926;32;32788;-79
2023/09/30 05:00:10;;;;;;;6.55;3.80;;;;;;;17.43;53.83;100046.97;4469672;32;33348;-79
2023/09/30 05:02:39;;;;;;;4.65;2.67;;;;;;;17.30;54.11;100042.91;4467995;32;34422;-79
2023/09/30 05:05:07;;;;;;;6.93;2.78;;;;;;;17.31;54.33;100047.34;4478895;32;33886;-79
2023/09/30 05:07:35;;;;;;;12.02;3.28;;;;;;;17.46;54.02;100043.97;4456794;32;33870;-79
2023/09/30 05:10:13;;;;;;;3.30;1.90;;;;;;;17.55;53.99;100044.03;4447764;32;34168;-77
2023/09/30 05:12:45;;;;;;;6.05;3.90;;;;;;;17.64;53.85;100053.97;4455207;32;32726;-71
2023/09/30 05:15:15;;;;;;;5.72;3.33;;;;;;;17.60;54.08;100055.28;4458339;32;33496;-80
2023/09/30 05:17:44;;;;;;;5.85;3.35;;;;;;;17.65;54.05;100056.50;4453055;32;33507;-75
2023/09/30 05:20:12;;;;;;;6.57;3.08;;;;;;;17.77;53.96;100059.88;4453754;32;34235;-74
2023/09/30 05:22:42;;;;;;;5.43;3.35;;;;;;;18.03;53.46;100056.41;4454022;32;33935;-76
2023/09/30 05:25:10;;;;;;;4.53;2.85;;;;;;;18.13;53.38;100055.31;4456340;32;33898;-76
2023/09/30 05:27:38;;;;;;;6.55;3.40;;;;;;;18.30;53.21;100056.31;4458169;32;33846;-74
2023/09/30 05:30:06;;;;;;;4.70;3.15;;;;;;;18.44;53.09;100052.19;4451690;32;32978;-75
2023/09/30 05:32:38;;;;;;;4.65;3.58;;;;;;;18.55;53.08;100059.22;4460197;32;33576;-76
2023/09/30 05:35:13;;;;;;;5.28;2.85;;;;;;;18.60;53.14;100062.31;4440503;32;34464;-76
2023/09/30 05:37:42;;;;;;;5.65;2.72;;;;;;;18.84;52.64;100067.94;4456231;32;33539;-85
2023/09/30 05:40:21;;;;;;;5.68;2.95;;;;;;;18.99;52.41;100073.59;4450964;32;32834;-79
2023/09/30 05:42:55;;;;;;;3.83;2.70;;;;;;;19.14;52.22;100065.72;4448464;32;32685;-79
2023/09/30 05:45:23;;;;;;;3.75;2.70;;;;;;;19.28;52.37;100066.97;4459498;32;33415;-79
2023/09/30 05:47:52;;;;;;;4.20;2.42;;;;;;;19.49;52.21;100063.84;4468229;32;33329;-80
2023/09/30 05:50:24;;;;;;;10.77;6.28;;;;;;;19.54;52.23;100061.44;4474939;32;33324;-80
2023/09/30 05:52:54;;;;;;;5.32;2.67;;;;;;;19.81;51.60;100068.53;4473104;32;35056;-79
2023/09/30 05:55:25;;;;;;;7.22;3.17;;;;;;;19.97;50.49;100068.56;4481381;32;33605;-80
2023/09/30 05:57:54;;;;;;;6.25;2.62;;;;;;;19.84;50.31;100070.03;4472382;32;33299;-80
2023/09/30 06:00:30;;;;;;;5.12;2.30;;;;;;;19.98;49.89;100074.84;4468221;32;34243;-80
2023/09/30 06:02:59;;;;;;;5.82;2.92;;;;;;;20.10;50.04;100073.50;4477793;32;34441;-80
2023/09/30 06:05:30;;;;;;;5.20;3.33;;;;;;;20.23;49.67;100079.28;4478268;31;33860;-77
2023/09/30 06:08:02;;;;;;;6.07;3.20;;;;;;;20.41;49.43;100079.09;4468240;32;33528;-77
2023/09/30 06:10:30;;;;;;;6.62;3.55;;;;;;;20.62;48.61;100075.91;4473239;32;34034;-77
2023/09/30 06:12:59;;;;;;;6.62;3.15;;;;;;;20.74;48.48;100076.41;4473950;32;34686;-77
2023/09/30 06:15:28;;;;;;;3.83;2.83;;;;;;;20.82;48.68;100076.38;4470339;31;33217;-79
2023/09/30 06:17:56;;;;;;;10.32;3.87;;;;;;;20.87;48.90;100078.59;4466871;32;33516;-80
2023/09/30 06:20:26;;;;;;;5.95;2.95;;;;;;;20.91;49.27;100078.06;4471282;31;33371;-79
2023/09/30 06:22:55;;;;;;;12.85;3.90;;;;;;;21.00;49.34;100078.06;4477853;32;33543;-78
2023/09/30 06:25:27;;;;;;;9.15;4.82;;;;;;;21.10;49.11;100079.56;4478269;32;33758;-78
2023/09/30 06:27:55;;;;;;;8.93;4.65;;;;;;;21.23;49.15;100080.87;4471474;32;33827;-78
2023/09/30 06:30:29;;;;;;;7.18;3.83;;;;;;;21.36;49.36;100078.47;4474882;32;34069;-70
2023/09/30 06:33:00;;;;;;;11.43;5.57;;;;;;;21.52;49.36;100089.28;4470386;32;33712;-75
2023/09/30 06:35:30;;;;;;;5.97;3.50;;;;;;;21.57;49.25;100083.31;4477215;32;34862;-75
2023/09/30 06:37:58;;;;;;;6.28;4.03;;;;;;;21.73;48.46;100079.66;4475357;32;34599;-75
2023/09/30 06:40:25;;;;;;;4.85;2.78;;;;;;;21.78;48.66;100080.81;4472691;32;32951;-75
2023/09/30 06:42:53;;;;;;;6.35;3.90;;;;;;;21.83;48.78;100077.56;4476318;32;33838;-75
2023/09/30 06:45:21;;;;;;;7.68;4.87;;;;;;;21.87;48.93;100087.91;4467539;32;33944;-75
2023/09/30 06:47:50;;;;;;;8.18;4.12;;;;;;;21.89;48.88;100089.59;4473916;32;34675;-75
2023/09/30 06:50:18;;;;;;;12.20;5.37;;;;;;;21.90;48.67;100094.03;4478040;32;34193;-75
2023/09/30 06:52:45;;;;;;;6.62;4.07;;;;;;;21.88;48.67;100096.94;4474965;32;34497;-77
2023/09/30 06:55:14;;;;;;;7.45;4.62;;;;;;;21.88;48.79;100096.94;4478201;32;33954;-77
2023/09/30 06:57:41;;;;;;;9.55;4.03;;;;;;;21.89;48.95;100098.63;4474516;32;33964;-74
2023/09/30 07:00:11;;;;;;;11.05;5.80;;;;;;;21.91;49.06;100096.56;4475763;32;34325;-74
2023/09/30 07:02:40;;;;;;;6.10;4.25;;;;;;;21.91;49.30;100095.72;4475928;31;33870;-74
2023/09/30 07:05:09;;;;;;;5.93;3.33;;;;;;;21.93;49.45;100101.87;4482562;31;32457;-74
2023/09/30 07:07:37;;;;;;;9.98;5.20;;;;;;;21.96;50.02;100105.06;4482863;31;33623;-74
2023/09/30 07:10:08;;;;;;;7.10;4.32;;;;;;;21.96;50.00;100104.19;4467537;32;34208;-74
2023/09/30 07:12:35;;;;;;;8.98;4.25;;;;;;;22.01;49.77;100102.63;4473069;32;33703;-74
2023/09/30 07:15:05;;;;;;;8.52;4.62;;;;;;;22.01;49.82;100099.06;4478139;32;33863;-74
2023/09/30 07:17:33;;;;;;;7.97;4.07;;;;;;;22.00;49.08;100100.94;4473669;32;33492;-74
2023/09/30 07:20:05;;;;;;;5.57;3.65;;;;;;;22.00;48.36;100103.69;4480740;32;33076;-74
2023/09/30 07:22:34;;;;;;;5.85;3.50;;;;;;;22.06;48.79;100104.84;4477910;32;33393;-74
2023/09/30 07:25:19;;;;;;;7.47;3.78;;;;;;;22.12;48.60;100108.69;4478891;32;34224;-74
2023/09/30 07:27:47;;;;;;;5.30;4.28;;;;;;;22.18;48.41;100113.47;4476770;32;33650;-74
2023/09/30 07:30:15;;;;;;;5.30;3.08;;;;;;;22.26;48.63;100121.59;4471590;32;31449;-74
2023/09/30 07:32:44;;;;;;;8.50;4.37;;;;;;;22.35;48.66;100117.78;4475602;31;33208;-74
2023/09/30 07:35:15;;;;;;;10.38;4.93;;;;;;;22.43;48.70;100114.13;4473295;32;35206;-72
2023/09/30 07:37:43;;;;;;;14.00;7.35;;;;;;;22.47;49.18;100123.66;4475514;32;36572;-72
2023/09/30 07:40:11;;;;;;;6.43;3.65;;;;;;;22.49;49.42;100121.59;4469339;32;33145;-72
2023/09/30 07:42:39;;;;;;;7.62;4.30;;;;;;;22.64;48.52;100114.31;4470228;32;32442;-72
2023/09/30 07:45:08;;;;;;;4.87;3.58;;;;;;;22.67;49.26;100119.41;4475629;32;33881;-72
2023/09/30 07:47:36;;;;;;;11.43;3.90;;;;;;;22.44;48.42;100119.44;4472220;32;33585;-73
2023/09/30 07:50:09;;;;;;;9.93;4.80;;;;;;;22.89;47.74;100122.25;4467886;32;33123;-73
2023/09/30 07:52:42;;;;;;;8.00;4.05;;;;;;;23.00;48.04;100122.69;4471284;32;33483;-73
2023/09/30 07:55:10;;;;;;;6.70;3.42;;;;;;;22.95;48.59;100121.53;4469086;32;34466;-73
2023/09/30 07:57:41;;;;;;;6.18;3.70;;;;;;;23.11;48.54;100120.53;4480277;32;35121;-72
2023/09/30 08:00:14;;;;;;;9.82;4.22;;;;;;;23.08;49.32;100129.97;4476379;32;33906;-72
2023/09/30 08:02:43;;;;;;;10.43;5.87;;;;;;;23.14;49.36;100123.72;4475642;31;32462;-72
2023/09/30 08:05:11;;;;;;;10.52;5.72;;;;;;;23.04;49.79;100131.34;4466188;32;34288;-72
2023/09/30 08:07:39;;;;;;;11.23;5.60;;;;;;;23.32;48.48;100134.28;4478052;32;34048;-72
2023/09/30 08:10:13;;;;;;;12.02;5.25;;;;;;;23.06;48.83;100140.22;4477902;31;33363;-73
2023/09/30 08:12:40;;;;;;;14.77;5.40;;;;;;;22.67;47.66;100138.50;4468148;32;33895;-73
2023/09/30 08:15:11;;;;;;;15.18;6.03;;;;;;;23.02;45.89;100136.16;4479399;32;34081;-73
2023/09/30 08:17:40;;;;;;;9.23;4.87;;;;;;;23.01;45.38;100137.19;4476824;32;33749;-73
2023/09/30 08:20:09;;;;;;;8.25;5.28;;;;;;;23.07;44.72;100141.91;4479217;32;33181;-73
2023/09/30 08:22:37;;;;;;;9.30;4.22;;;;;;;22.95;44.75;100146.09;4472756;32;35026;-72
2023/09/30 08:25:06;;;;;;;11.80;4.90;;;;;;;23.00;44.98;100143.69;4475065;32;33964;-72
2023/09/30 08:27:34;;;;;;;8.57;3.80;;;;;;;22.65;46.10;100132.37;4456917;32;33670;-72
2023/09/30 08:30:05;;;;;;;9.07;4.07;;;;;;;23.08;44.36;100145.47;4483964;32;34508;-72
2023/09/30 08:32:35;;;;;;;9.52;4.50;;;;;;;22.90;44.66;100130.28;4471588;32;34490;-72
2023/09/30 08:35:04;;;;;;;7.28;4.18;;;;;;;22.80;44.64;100129.69;4471314;31;34058;-74
2023/09/30 08:37:32;;;;;;;8.13;3.95;;;;;;;22.56;46.50;100131.56;4476798;32;34362;-74
2023/09/30 08:40:00;;;;;;;5.65;3.53;;;;;;;23.09;45.49;100128.06;4470489;32;34391;-74
2023/09/30 08:42:32;;;;;;;7.32;4.05;;;;;;;22.77;46.29;100119.13;4479640;32;33912;-74
2023/09/30 08:45:00;;;;;;;7.90;3.75;;;;;;;22.56;46.96;100125.28;4468215;32;35730;-74
2023/09/30 08:47:28;;;;;;;6.37;3.95;;;;;;;23.10;45.77;100121.56;4474115;32;33562;-74
2023/09/30 08:50:05;;;;;;;7.80;4.07;;;;;;;22.50;47.46;100115.97;4484853;32;34642;-74
2023/09/30 08:52:34;;;;;;;6.45;3.85;;;;;;;23.10;45.90;100124.31;4485298;31;34436;-74
2023/09/30 08:55:08;;;;;;;8.20;4.80;;;;;;;23.02;46.03;100128.81;4478132;32;34350;-74
2023/09/30 08:57:39;;;;;;;10.65;4.50;;;;;;;22.67;47.50;100127.59;4473848;32;33749;-74
2023/09/30 09:00:11;;;;;;;6.62;3.50;;;;;;;22.58;48.05;100123.22;4483584;32;32930;-74
2023/09/30 09:02:40;;;;;;;7.35;3.87;;;;;;;23.06;46.89;100128.44;4477707;32;33984;-75
2023/09/30 09:05:09;;;;;;;6.85;3.87;;;;;;;23.01;46.70;100127.09;4450145;32;34731;-75
2023/09/30 09:07:37;;;;;;;16.02;5.15;;;;;;;23.07;46.43;100125.53;4459249;32;34864;-75
2023/09/30 09:10:05;;;;;;;7.12;3.85;;;;;;;23.39;45.86;100123.47;4448233;32;33210;-75
2023/09/30 09:12:34;;;;;;;11.82;6.30;;;;;;;23.14;46.96;100122.88;4462163;32;33822;-75
2023/09/30 09:15:03;;;;;;;11.75;5.68;;;;;;;23.45;46.49;100125.44;4459850;32;34146;-75
2023/09/30 09:17:44;;;;;;;13.27;5.32;;;;;;;23.15;47.31;100133.62;4444072;32;33777;-75
2023/09/30 09:20:20;;;;;;;8.80;4.57;;;;;;;23.11;47.04;100126.84;4419302;32;32870;-75
2023/09/30 09:22:53;;;;;;;9.10;4.50;;;;;;;23.00;47.39;100130.88;4415687;32;33718;-75
2023/09/30 09:25:22;;;;;;;7.40;3.92;;;;;;;23.20;47.24;100131.19;4416188;32;33969;-75
2023/09/30 09:27:54;;;;;;;10.25;5.95;;;;;;;23.30;47.17;100135.50;4418144;32;32837;-74
2023/09/30 09:30:24;;;;;;;9.48;5.37;;;;;;;22.98;47.25;100123.91;4418207;32;32907;-74
2023/09/30 09:33:00;;;;;;;8.10;4.93;;;;;;;23.12;47.65;100124.97;4417800;32;33969;-74
2023/09/30 09:35:32;;;;;;;;;;;;;;;23.40;47.03;100125.16;4414666;32;33538;-74
2023/09/30 09:38:07;;;;;;;10.82;4.40;;;;;;;23.55;46.50;100117.81;4416492;32;34142;-74
2023/09/30 09:40:37;;;;;;;7.65;3.65;;;;;;;23.37;46.67;100120.94;4418124;32;34043;-74
2023/09/30 09:43:06;;;;;;;6.32;4.10;;;;;;;23.40;46.55;100112.38;4433754;32;35342;-74
2023/09/30 09:45:35;;;;;;;14.30;4.43;;;;;;;23.38;46.59;100111.69;4450312;32;34025;-74
2023/09/30 09:48:04;;;;;;;6.37;3.92;;;;;;;23.41;46.43;100102.28;4445576;32;33640;-74
2023/09/30 09:50:33;;;;;;;8.82;5.32;;;;;;;23.35;46.97;100108.50;4450608;32;33355;-74
2023/09/30 09:53:01;;;;;;;7.45;4.07;;;;;;;22.41;48.87;100099.84;4473962;31;34992;-74
2023/09/30 09:55:28;;;;;;;7.10;4.43;;;;;;;23.08;47.61;100101.78;4465612;32;35181;-74
2023/09/30 09:57:57;;;;;;;7.03;4.05;;;;;;;23.46;46.60;100100.66;4460044;32;33698;-74
2023/09/30 10:00:26;;;;;;;9.90;5.53;;;;;;;22.78;48.54;100101.72;4463595;32;34661;-76
2023/09/30 10:02:54;;;;;;;7.32;3.95;;;;;;;23.06;47.49;100102.00;4463998;32;34135;-76
2023/09/30 10:05:22;;;;;;;7.43;3.92;;;;;;;23.37;46.88;100111.87;4463017;32;33355;-76
2023/09/30 10:07:55;;;;;;;6.87;3.72;;;;;;;22.95;47.86;100095.13;4449111;32;33529;-75
2023/09/30 10:10:24;;;;;;;7.53;3.60;;;;;;;23.06;47.36;100096.53;4450529;32;33206;-74
2023/09/30 10:12:52;;;;;;;9.77;5.20;;;;;;;22.95;47.06;100106.03;4441369;32;33918;-75
2023/09/30 10:15:25;;;;;;;7.32;4.30;;;;;;;22.91;46.98;100093.75;4447442;32;33867;-75
2023/09/30 10:17:58;;;;;;;9.85;5.62;;;;;;;23.02;47.55;100096.06;4447243;32;33417;-75
2023/09/30 10:20:30;;;;;;;9.40;5.50;;;;;;;23.12;47.77;100098.53;4447519;32;32178;-74
2023/09/30 10:23:17;;;;;;;7.10;4.28;;;;;;;22.69;48.75;100094.66;4430298;32;33766;-75
2023/09/30 10:25:47;;;;;;;8.23;4.62;;;;;;;23.21;47.38;100088.31;4430726;32;35016;-74
2023/09/30 10:28:40;;;;;;;10.45;5.70;;;;;;;23.27;47.81;100097.66;4417550;32;34439;-75
2023/09/30 10:31:19;;;;;;;6.72;4.35;;;;;;;22.85;48.89;100097.22;4414967;32;34150;-76
2023/09/30 10:34:02;;;;;;;11.68;5.03;;;;;;;22.81;48.80;100098.63;4414204;32;33891;-76
2023/09/30 10:36:32;;;;;;;7.47;4.62;;;;;;;23.23;48.45;100098.03;4400577;32;34115;-76
2023/09/30 10:39:00;;;;;;;7.53;4.22;;;;;;;22.89;49.08;100100.41;4391344;32;34817;-71
2023/09/30 10:41:46;;;;;;;7.35;3.97;;;;;;;22.64;49.92;100097.94;4384630;32;33969;-71
2023/09/30 10:44:38;;;;;;;9.18;4.60;;;;;;;22.76;49.24;100087.41;4392447;32;34050;-77
2023/09/30 10:47:24;;;;;;;10.45;5.57;;;;;;;23.13;49.12;100091.16;4349250;32;35741;-75
2023/09/30 10:49:53;;;;;;;11.10;5.40;;;;;;;22.53;50.34;100093.75;4351452;32;34935;-76
2023/09/30 10:52:22;;;;;;;10.77;4.18;;;;;;;23.08;49.42;100091.75;4342163;32;34291;-77
2023/09/30 10:54:50;;;;;;;9.57;5.90;;;;;;;23.06;49.59;100087.50;4355843;32;33622;-77
2023/09/30 10:57:30;;;;;;;8.85;5.28;;;;;;;23.43;48.75;100086.53;4328156;32;35008;-76
2023/09/30 11:00:08;;;;;;;7.87;4.93;;;;;;;22.97;49.82;100087.56;4325199;32;33817;-76
2023/09/30 11:02:51;;;;;;;8.93;5.47;;;;;;;23.16;49.32;100083.44;4347121;32;34281;-76
2023/09/30 11:05:20;;;;;;;7.75;4.78;;;;;;;23.19;49.26;100082.22;4355157;32;34974;-78
2023/09/30 11:08:03;;;;;;;10.02;5.07;;;;;;;23.16;49.00;100083.44;4354099;32;34911;-76
2023/09/30 11:10:32;;;;;;;16.27;5.82;;;;;;;22.69;50.43;100083.72;4355602;32;33533;-76
2023/09/30 11:12:59;;;;;;;7.45;4.20;;;;;;;22.75;50.58;100083.84;4384741;32;34498;-77
2023/09/30 11:15:27;;;;;;;9.27;5.72;;;;;;;22.60;51.25;100080.25;4386764;32;34869;-76
2023/09/30 11:18:13;;;;;;;14.25;6.18;;;;;;;22.76;50.82;100090.12;4386932;32;34004;-76
2023/09/30 11:20:42;;;;;;;11.63;6.15;;;;;;;22.84;50.86;100086.50;4386207;32;36492;-76
2023/09/30 11:23:10;;;;;;;8.98;5.68;;;;;;;22.63;51.10;100088.06;4377768;32;33373;-76
2023/09/30 11:25:39;;;;;;;11.80;5.60;;;;;;;22.79;51.06;100087.03;4449106;32;34966;-77
2023/09/30 11:28:13;;;;;;;8.15;4.37;;;;;;;22.44;52.39;100088.56;4447457;32;33792;-77
2023/09/30 11:31:02;;;;;;;7.72;4.60;;;;;;;22.72;51.19;100078.75;4447003;32;34826;-77
2023/09/30 11:33:30;;;;;;;14.15;6.57;;;;;;;22.41;52.01;100087.06;4438982;32;33205;-77
2023/09/30 11:36:01;;;;;;;12.57;6.15;;;;;;;22.61;51.51;100086.56;4470286;32;35008;-77
2023/09/30 11:38:30;;;;;;;9.07;5.03;;;;;;;22.48;51.91;100088.03;4469861;32;35192;-76